createdAt,value
2023-06-22T00:00:15.876Z,16.60
2023-06-22T00:02:42.458Z,16.60
2023-06-22T00:05:09.138Z,16.59
2023-06-22T00:07:35.685Z,16.57
2023-06-22T00:10:02.254Z,16.53
2023-06-22T00:12:28.794Z,16.58
2023-06-22T00:14:55.442Z,16.54
2023-06-22T00:17:22.066Z,16.55
2023-06-22T00:19:49.138Z,16.52
2023-06-22T00:22:15.755Z,16.53
2023-06-22T00:24:42.910Z,16.53
2023-06-22T00:27:09.552Z,16.46
2023-06-22T00:29:36.103Z,16.51
2023-06-22T00:32:02.724Z,16.52
2023-06-22T00:34:29.334Z,16.50
2023-06-22T00:36:55.903Z,16.46
2023-06-22T00:39:22.460Z,16.39
2023-06-22T00:41:49.026Z,16.39
2023-06-22T00:44:15.624Z,16.36
2023-06-22T00:46:42.188Z,16.32
2023-06-22T00:49:08.919Z,16.37
2023-06-22T00:51:39.156Z,16.33
2023-06-22T00:54:06.320Z,16.32
2023-06-22T00:56:33.571Z,16.28
2023-06-22T00:59:01.574Z,16.26
2023-06-22T01:01:28.205Z,16.26
2023-06-22T01:03:58.634Z,16.23
2023-06-22T01:06:39.686Z,16.16
2023-06-22T01:09:17.090Z,16.18
2023-06-22T01:11:49.949Z,16.17
2023-06-22T01:14:28.277Z,16.18
2023-06-22T01:16:57.671Z,16.15
2023-06-22T01:19:36.073Z,16.15
2023-06-22T01:22:04.938Z,16.13
2023-06-22T01:24:42.885Z,16.11
2023-06-22T01:27:30.147Z,16.10
2023-06-22T01:30:01.591Z,16.09
2023-06-22T01:32:43.690Z,15.95
2023-06-22T01:35:11.916Z,15.98
2023-06-22T01:37:39.884Z,16.00
2023-06-22T01:40:11.127Z,15.96
2023-06-22T01:42:39.245Z,15.98
2023-06-22T01:45:07.992Z,15.94
2023-06-22T01:47:35.465Z,15.93
2023-06-22T01:50:02.415Z,15.85
2023-06-22T01:52:29.136Z,15.93
2023-06-22T01:54:55.711Z,15.88
2023-06-22T01:57:22.431Z,15.81
2023-06-22T02:00:08.666Z,15.83
2023-06-22T02:02:41.878Z,15.83
2023-06-22T02:05:13.466Z,15.83
2023-06-22T02:07:47.682Z,15.74
2023-06-22T02:10:19.562Z,15.77
2023-06-22T02:12:47.137Z,15.73
2023-06-22T02:15:15.255Z,15.69
2023-06-22T02:17:45.994Z,15.61
2023-06-22T02:20:14.574Z,15.65
2023-06-22T02:22:41.640Z,15.63
2023-06-22T02:25:08.701Z,15.59
2023-06-22T02:27:35.315Z,15.56
2023-06-22T02:30:02.027Z,15.51
2023-06-22T02:32:28.581Z,15.53
2023-06-22T02:34:55.221Z,15.51
2023-06-22T02:37:21.834Z,15.46
2023-06-22T02:39:48.717Z,15.48
2023-06-22T02:42:16.394Z,15.42
2023-06-22T02:44:43.011Z,15.44
2023-06-22T02:47:09.598Z,15.44
2023-06-22T02:53:17.240Z,15.43
2023-06-22T02:55:43.838Z,15.43
2023-06-22T02:58:10.377Z,15.40
2023-06-22T03:00:37.017Z,15.47
2023-06-22T03:03:03.766Z,15.50
2023-06-22T03:05:30.428Z,15.56
2023-06-22T03:07:57.059Z,15.48
2023-06-22T03:10:23.643Z,15.49
2023-06-22T03:12:50.274Z,15.49
2023-06-22T03:15:18.909Z,15.47
2023-06-22T03:17:46.826Z,15.46
2023-06-22T03:20:13.616Z,15.43
2023-06-22T03:22:41.914Z,15.43
2023-06-22T03:25:14.613Z,15.41
2023-06-22T03:27:42.337Z,15.35
2023-06-22T03:30:10.983Z,15.35
2023-06-22T03:32:37.717Z,15.39
2023-06-22T03:35:05.139Z,15.34
2023-06-22T03:37:33.122Z,15.39
2023-06-22T03:39:59.719Z,15.43
2023-06-22T03:42:27.488Z,15.40
2023-06-22T03:44:54.086Z,15.35
2023-06-22T03:47:20.669Z,15.40
2023-06-22T03:49:47.298Z,15.39
2023-06-22T03:52:13.928Z,15.40
2023-06-22T03:54:40.617Z,15.44
2023-06-22T03:57:07.389Z,15.42
2023-06-22T03:59:33.994Z,15.41
2023-06-22T04:02:00.691Z,15.47
2023-06-22T04:04:27.519Z,15.48
2023-06-22T04:06:54.346Z,15.51
2023-06-22T04:09:22.644Z,15.49
2023-06-22T04:11:49.266Z,15.50
2023-06-22T04:14:15.838Z,15.51
2023-06-22T04:16:42.425Z,15.61
2023-06-22T04:19:14.331Z,15.68
2023-06-22T04:21:41.754Z,15.83
2023-06-22T04:24:08.458Z,15.85
2023-06-22T04:26:38.046Z,15.88
2023-06-22T04:29:06.632Z,15.96
2023-06-22T04:31:37.994Z,16.02
2023-06-22T04:34:09.462Z,16.10
2023-06-22T04:36:41.547Z,16.13
2023-06-22T04:39:12.484Z,16.21
2023-06-22T04:41:43.788Z,16.28
2023-06-22T04:44:14.763Z,16.38
2023-06-22T04:46:41.704Z,16.46
2023-06-22T04:49:11.127Z,16.45
2023-06-22T04:51:42.567Z,16.57
2023-06-22T04:54:10.337Z,16.67
2023-06-22T04:56:37.154Z,16.82
2023-06-22T04:59:04.445Z,16.90
2023-06-22T05:01:32.637Z,17.08
2023-06-22T05:04:02.249Z,17.25
2023-06-22T05:06:29.401Z,17.38
2023-06-22T05:08:59.841Z,17.54
2023-06-22T05:11:29.588Z,17.74
2023-06-22T05:13:56.765Z,17.94
2023-06-22T05:16:27.468Z,18.21
2023-06-22T05:19:25.197Z,18.70
2023-06-22T05:21:51.761Z,18.91
2023-06-22T05:24:18.411Z,19.12
2023-06-22T05:26:45.024Z,19.42
2023-06-22T05:29:11.608Z,19.50
2023-06-22T05:31:38.264Z,19.79
2023-06-22T05:34:04.861Z,19.87
2023-06-22T05:36:31.650Z,20.22
2023-06-22T05:38:59.487Z,20.14
2023-06-22T05:41:26.113Z,20.24
2023-06-22T05:43:52.696Z,20.66
2023-06-22T05:46:20.314Z,20.87
2023-06-22T05:48:46.987Z,21.11
2023-06-22T05:51:13.662Z,21.27
2023-06-22T05:53:40.280Z,21.49
2023-06-22T05:56:06.933Z,21.83
2023-06-22T05:58:33.536Z,21.73
2023-06-22T06:01:01.784Z,21.90
2023-06-22T06:03:30.297Z,22.10
2023-06-22T06:05:57.227Z,22.50
2023-06-22T06:08:24.088Z,22.89
2023-06-22T06:10:50.863Z,23.28
2023-06-22T06:13:17.476Z,23.29
2023-06-22T06:15:44.168Z,22.57
2023-06-22T06:18:11.997Z,21.44
2023-06-22T06:20:38.858Z,21.22
2023-06-22T06:23:05.508Z,20.96
2023-06-22T06:25:44.428Z,20.99
2023-06-22T06:28:11.709Z,21.21
2023-06-22T06:30:38.373Z,21.23
2023-06-22T06:33:10.217Z,21.31
2023-06-22T06:35:37.159Z,21.58
2023-06-22T06:38:03.842Z,22.06
2023-06-22T06:40:31.084Z,22.45
2023-06-22T06:42:58.193Z,22.63
2023-06-22T06:45:25.641Z,23.24
2023-06-22T06:47:54.069Z,23.57
2023-06-22T06:50:23.807Z,23.23
2023-06-22T06:52:51.740Z,23.09
2023-06-22T06:55:18.730Z,23.66
2023-06-22T06:57:49.473Z,23.89
2023-06-22T07:00:16.700Z,23.79
2023-06-22T07:02:45.252Z,23.53
2023-06-22T07:05:13.786Z,24.20
2023-06-22T07:07:40.662Z,24.41
2023-06-22T07:10:07.741Z,24.03
2023-06-22T07:12:34.847Z,24.09
2023-06-22T07:15:06.476Z,23.89
2023-06-22T07:17:33.276Z,24.09
2023-06-22T07:20:00.014Z,24.29
2023-06-22T07:22:26.661Z,24.04
2023-06-22T07:24:53.419Z,24.30
2023-06-22T07:27:20.938Z,24.48
2023-06-22T07:29:47.594Z,24.68
2023-06-22T07:32:14.524Z,24.89
2023-06-22T07:34:41.398Z,24.94
2023-06-22T07:37:08.145Z,24.89
2023-06-22T07:39:34.758Z,25.03
2023-06-22T07:42:01.469Z,25.22
2023-06-22T07:44:28.138Z,25.41
2023-06-22T07:46:55.886Z,25.42
2023-06-22T07:49:22.617Z,25.37
2023-06-22T07:51:49.232Z,25.46
2023-06-22T07:54:17.139Z,25.69
2023-06-22T07:56:44.282Z,25.65
2023-06-22T07:59:10.989Z,25.30
2023-06-22T08:01:37.701Z,25.05
2023-06-22T08:04:04.717Z,25.38
2023-06-22T08:06:32.028Z,25.02
2023-06-22T08:09:00.295Z,25.10
2023-06-22T08:11:27.080Z,25.80
2023-06-22T08:13:53.891Z,25.84
2023-06-22T08:16:20.560Z,26.06
2023-06-22T08:18:49.940Z,25.75
2023-06-22T08:21:16.733Z,25.94
2023-06-22T08:23:43.350Z,25.84
2023-06-22T08:26:10.005Z,26.12
2023-06-22T08:28:37.434Z,26.38
2023-06-22T08:31:05.044Z,26.34
2023-06-22T08:33:32.527Z,26.07
2023-06-22T08:36:00.523Z,26.19
2023-06-22T08:38:27.250Z,25.89
2023-06-22T08:40:53.930Z,26.20
2023-06-22T08:43:21.632Z,25.99
2023-06-22T08:45:48.354Z,26.13
2023-06-22T08:48:15.474Z,26.26
2023-06-22T08:50:42.221Z,26.50
2023-06-22T08:53:09.256Z,26.59
2023-06-22T08:55:35.971Z,26.85
2023-06-22T08:58:02.571Z,27.09
2023-06-22T09:00:30.544Z,26.96
2023-06-22T09:03:00.097Z,27.23
2023-06-22T09:05:30.165Z,27.37
2023-06-22T09:07:59.890Z,27.11
2023-06-22T09:10:29.013Z,27.13
2023-06-22T09:12:55.940Z,27.13
2023-06-22T09:15:24.673Z,27.45
2023-06-22T09:17:51.399Z,27.05
2023-06-22T09:20:18.056Z,27.24
2023-06-22T09:22:44.861Z,27.40
2023-06-22T09:25:11.765Z,27.18
2023-06-22T09:27:38.346Z,27.42
2023-06-22T09:30:05.616Z,27.36
2023-06-22T09:32:32.286Z,27.30
2023-06-22T09:34:59.061Z,27.38
2023-06-22T09:37:25.776Z,27.84
2023-06-22T09:39:52.384Z,27.53
2023-06-22T09:42:19.034Z,27.41
2023-06-22T09:44:45.594Z,27.20
2023-06-22T09:47:12.209Z,26.66
2023-06-22T09:49:47.864Z,26.46
2023-06-22T09:52:15.295Z,26.26
2023-06-22T09:54:41.952Z,26.08
2023-06-22T09:57:08.573Z,25.92
2023-06-22T09:59:35.257Z,25.92
2023-06-22T10:02:02.129Z,25.68
2023-06-22T10:04:28.881Z,25.85
2023-06-22T10:06:55.692Z,25.68
2023-06-22T10:09:22.630Z,25.87
2023-06-22T10:11:49.367Z,25.70
2023-06-22T10:14:18.093Z,25.78
2023-06-22T10:16:44.783Z,25.54
2023-06-22T10:19:11.397Z,25.47
2023-06-22T10:21:38.111Z,25.51
2023-06-22T10:24:07.491Z,25.70
2023-06-22T10:26:34.744Z,25.43
2023-06-22T10:31:42.180Z,25.05
2023-06-22T10:34:20.335Z,24.68
2023-06-22T10:36:49.776Z,24.50
2023-06-22T10:39:16.748Z,24.62
2023-06-22T10:41:43.574Z,24.63
2023-06-22T10:44:10.332Z,24.59
2023-06-22T10:46:39.533Z,24.51
2023-06-22T10:49:06.462Z,24.20
2023-06-22T10:51:33.484Z,24.47
2023-06-22T10:54:02.764Z,24.46
2023-06-22T10:56:31.179Z,24.21
2023-06-22T10:59:23.849Z,24.22
2023-06-22T11:02:00.124Z,24.11
2023-06-22T11:04:32.196Z,23.93
2023-06-22T11:07:07.631Z,23.89
2023-06-22T11:09:36.475Z,24.08
2023-06-22T11:12:08.568Z,23.99
2023-06-22T11:14:42.476Z,23.79
2023-06-22T11:17:09.170Z,23.57
2023-06-22T11:19:36.025Z,23.56
2023-06-22T11:22:02.857Z,23.57
2023-06-22T11:24:29.626Z,23.39
2023-06-22T11:27:00.060Z,23.19
2023-06-22T11:29:41.098Z,23.54
2023-06-22T11:32:12.473Z,23.44
2023-06-22T11:34:41.375Z,23.57
2023-06-22T11:37:08.088Z,23.70
2023-06-22T11:39:41.617Z,23.28
2023-06-22T11:42:14.265Z,23.52
2023-06-22T11:44:40.988Z,23.49
2023-06-22T11:47:07.911Z,23.78
2023-06-22T11:49:34.580Z,23.79
2023-06-22T11:52:01.267Z,23.85
2023-06-22T11:54:27.886Z,23.91
2023-06-22T11:56:54.574Z,23.87
2023-06-22T11:59:23.491Z,23.87
2023-06-22T12:01:52.276Z,23.80
2023-06-22T12:04:19.272Z,23.58
2023-06-22T12:06:48.321Z,23.41
2023-06-22T12:09:17.125Z,23.42
2023-06-22T12:11:46.867Z,23.48
2023-06-22T12:17:01.884Z,23.49
2023-06-22T12:19:31.397Z,23.33
2023-06-22T12:22:06.358Z,23.20
2023-06-22T12:24:32.969Z,23.45
2023-06-22T12:26:59.733Z,23.35
2023-06-22T12:29:26.365Z,23.32
2023-06-22T12:31:53.065Z,23.17
2023-06-22T12:34:19.658Z,23.21
2023-06-22T12:36:48.444Z,23.18
2023-06-22T12:39:15.515Z,23.18
2023-06-22T12:41:42.115Z,23.04
2023-06-22T12:44:08.757Z,22.78
2023-06-22T12:46:38.805Z,22.67
2023-06-22T12:49:06.150Z,22.50
2023-06-22T12:51:32.944Z,22.24
2023-06-22T12:53:59.645Z,22.23
2023-06-22T12:56:26.312Z,22.17
2023-06-22T12:58:52.920Z,22.18
2023-06-22T13:01:19.623Z,21.99
2023-06-22T13:03:46.325Z,21.90
2023-06-22T13:06:12.917Z,21.82
2023-06-22T13:11:09.130Z,21.57
2023-06-22T13:13:35.784Z,21.49
2023-06-22T13:16:02.571Z,21.53
2023-06-22T13:18:29.157Z,21.49
2023-06-22T13:20:55.903Z,21.46
2023-06-22T13:23:22.873Z,21.49
2023-06-22T13:25:49.518Z,21.43
2023-06-22T13:28:27.904Z,21.51
2023-06-22T13:30:55.681Z,21.51
2023-06-22T13:33:22.386Z,21.56
2023-06-22T13:35:49.076Z,21.51
2023-06-22T13:38:15.706Z,21.50
2023-06-22T13:40:42.335Z,21.62
2023-06-22T13:43:08.989Z,21.60
2023-06-22T13:45:35.979Z,21.66
2023-06-22T13:48:02.865Z,21.65
2023-06-22T13:50:31.346Z,21.67
2023-06-22T13:52:58.193Z,21.54
2023-06-22T13:55:25.014Z,21.57
2023-06-22T13:57:52.543Z,21.53
2023-06-22T14:00:19.651Z,21.55
2023-06-22T14:02:46.818Z,21.63
2023-06-22T14:05:13.404Z,21.56
2023-06-22T14:07:40.725Z,21.56
2023-06-22T14:10:08.205Z,21.46
2023-06-22T14:12:34.890Z,21.45
2023-06-22T14:15:01.514Z,21.35
2023-06-22T14:17:28.243Z,21.41
2023-06-22T14:19:55.327Z,21.35
2023-06-22T14:22:22.863Z,21.33
2023-06-22T14:24:50.705Z,21.28
2023-06-22T14:27:20.574Z,21.24
2023-06-22T14:29:47.201Z,21.25
2023-06-22T14:32:13.766Z,21.20
2023-06-22T14:34:40.605Z,21.21
2023-06-22T14:37:14.138Z,21.06
2023-06-22T14:39:40.809Z,21.00
2023-06-22T14:42:07.670Z,20.87
2023-06-22T14:44:34.406Z,20.78
2023-06-22T14:47:00.999Z,20.69
2023-06-22T14:49:27.752Z,20.66
2023-06-22T14:51:54.373Z,20.61
2023-06-22T14:54:21.278Z,20.48
2023-06-22T14:56:49.355Z,20.43
2023-06-22T14:59:16.056Z,20.40
2023-06-22T15:01:43.508Z,20.26
2023-06-22T15:04:11.462Z,20.20
2023-06-22T15:06:38.044Z,20.17
2023-06-22T15:09:04.627Z,20.13
2023-06-22T15:11:31.273Z,20.15
2023-06-22T15:14:00.875Z,20.08
2023-06-22T15:16:27.673Z,20.10
2023-06-22T15:18:54.248Z,20.07
2023-06-22T15:21:21.084Z,20.10
2023-06-22T15:23:47.722Z,20.12
2023-06-22T15:26:14.324Z,20.08
2023-06-22T15:28:40.917Z,20.06
2023-06-22T15:31:07.962Z,20.04
2023-06-22T15:33:34.797Z,20.02
2023-06-22T15:36:05.915Z,20.02
2023-06-22T15:38:33.410Z,20.01
2023-06-22T15:41:00.042Z,19.98
2023-06-22T15:43:26.669Z,20.00
2023-06-22T15:45:55.364Z,19.98
2023-06-22T15:48:22.729Z,20.03
2023-06-22T15:50:49.474Z,19.95
2023-06-22T15:53:16.205Z,19.95
2023-06-22T15:55:42.868Z,19.95
2023-06-22T15:58:10.858Z,20.01
2023-06-22T16:00:37.677Z,19.94
2023-06-22T16:03:04.571Z,19.92
2023-06-22T16:05:31.528Z,19.89
2023-06-22T16:07:58.223Z,19.93
2023-06-22T16:10:24.962Z,19.97
2023-06-22T16:12:53.324Z,19.82
2023-06-22T16:15:22.903Z,19.92
2023-06-22T16:17:49.500Z,19.92
2023-06-22T16:20:18.112Z,19.93
2023-06-22T16:22:47.189Z,19.89
2023-06-22T16:25:14.507Z,19.95
2023-06-22T16:27:41.145Z,19.84
2023-06-22T16:30:08.615Z,19.89
2023-06-22T16:32:35.293Z,19.89
2023-06-22T16:35:02.043Z,19.92
2023-06-22T16:37:28.914Z,19.93
2023-06-22T16:39:55.707Z,19.96
2023-06-22T16:42:22.452Z,19.95
2023-06-22T16:44:49.314Z,20.02
2023-06-22T16:47:15.928Z,20.05
2023-06-22T16:49:42.571Z,20.02
2023-06-22T16:52:09.338Z,19.93
2023-06-22T16:54:40.002Z,19.98
2023-06-22T16:57:16.098Z,19.93
2023-06-22T16:59:45.396Z,20.00
2023-06-22T17:02:20.276Z,19.89
2023-06-22T17:04:47.173Z,19.96
2023-06-22T17:07:18.582Z,19.90
2023-06-22T17:09:47.979Z,19.83
2023-06-22T17:12:15.456Z,19.78
2023-06-22T17:14:46.440Z,19.66
2023-06-22T17:17:16.641Z,19.54
2023-06-22T17:19:43.360Z,19.46
2023-06-22T17:22:09.965Z,19.38
2023-06-22T17:24:37.265Z,19.42
2023-06-22T17:27:04.240Z,19.40
2023-06-22T17:29:32.742Z,19.31
2023-06-22T17:31:59.938Z,19.29
2023-06-22T17:34:30.641Z,19.18
2023-06-22T17:36:59.134Z,19.19
2023-06-22T17:39:29.565Z,19.17
2023-06-22T17:41:56.474Z,19.06
2023-06-22T17:44:27.706Z,19.03
2023-06-22T17:46:56.385Z,18.94
2023-06-22T17:49:27.880Z,18.75
2023-06-22T17:51:54.552Z,18.81
2023-06-22T17:54:31.105Z,18.74
2023-06-22T17:57:17.695Z,18.75
2023-06-22T17:59:51.523Z,18.76
2023-06-22T18:02:24.682Z,18.67
2023-06-22T18:04:51.697Z,18.62
2023-06-22T18:07:18.593Z,18.65
2023-06-22T18:09:46.484Z,18.71
2023-06-22T18:12:13.955Z,18.70
2023-06-22T18:14:43.495Z,18.77
2023-06-22T18:17:10.846Z,18.72
2023-06-22T18:19:39.336Z,18.67
2023-06-22T18:22:06.481Z,18.68
2023-06-22T18:24:34.366Z,18.68
2023-06-22T18:27:03.464Z,18.60
2023-06-22T18:29:31.847Z,18.67
2023-06-22T18:31:58.647Z,18.53
2023-06-22T18:34:26.574Z,18.59
2023-06-22T18:36:56.031Z,18.60
2023-06-22T18:39:23.666Z,18.55
2023-06-22T18:41:53.666Z,18.62
2023-06-22T18:44:27.132Z,18.63
2023-06-22T18:47:02.354Z,18.57
2023-06-22T18:49:34.382Z,18.58
2023-06-22T18:52:17.509Z,18.66
2023-06-22T18:54:50.769Z,18.59
2023-06-22T18:57:19.042Z,18.53
2023-06-22T18:59:47.044Z,18.59
2023-06-22T19:02:49.969Z,18.58
2023-06-22T19:05:20.431Z,18.55
2023-06-22T19:07:53.622Z,18.49
2023-06-22T19:10:27.821Z,18.57
2023-06-22T19:12:56.201Z,18.58
2023-06-22T19:15:30.891Z,18.63
2023-06-22T19:18:02.727Z,18.58
2023-06-22T19:20:35.186Z,18.67
2023-06-22T19:23:01.771Z,18.68
2023-06-22T19:25:31.642Z,18.56
2023-06-22T19:27:59.484Z,18.71
2023-06-22T19:30:26.538Z,18.63
2023-06-22T19:32:53.333Z,18.61
2023-06-22T19:35:21.616Z,18.76
2023-06-22T19:37:49.017Z,18.72
2023-06-22T19:40:22.294Z,18.72
2023-06-22T19:42:54.415Z,18.81
2023-06-22T19:45:21.084Z,18.81
2023-06-22T19:47:47.747Z,18.70
2023-06-22T19:50:15.404Z,18.79
2023-06-22T19:52:43.658Z,18.82
2023-06-22T19:55:15.191Z,18.76
2023-06-22T19:57:47.688Z,18.72
2023-06-22T20:00:21.672Z,18.72
2023-06-22T20:02:54.041Z,18.74
2023-06-22T20:05:22.592Z,18.71
2023-06-22T20:07:49.223Z,18.74
2023-06-22T20:10:18.943Z,18.67
2023-06-22T20:12:53.337Z,18.60
2023-06-22T20:15:28.297Z,18.48
2023-06-22T20:18:02.164Z,18.48
2023-06-22T20:20:34.756Z,18.62
2023-06-22T20:23:03.099Z,18.55
2023-06-22T20:25:36.516Z,18.57
2023-06-22T20:28:20.348Z,18.45
2023-06-22T20:31:02.937Z,18.40
2023-06-22T20:33:29.916Z,18.46
2023-06-22T20:35:56.574Z,18.46
2023-06-22T20:38:26.107Z,18.46
2023-06-22T20:40:56.693Z,18.35
2023-06-22T20:43:25.193Z,18.38
2023-06-22T20:45:55.739Z,18.38
2023-06-22T20:48:37.951Z,18.30
2023-06-22T20:51:06.044Z,18.41
2023-06-22T20:53:33.350Z,18.31
2023-06-22T20:56:00.302Z,18.23
2023-06-22T20:58:27.150Z,18.25
2023-06-22T21:00:56.304Z,18.32
2023-06-22T21:03:23.114Z,18.38
2023-06-22T21:05:50.440Z,18.45
2023-06-22T21:08:17.302Z,18.42
2023-06-22T21:10:44.350Z,18.34
2023-06-22T21:13:11.762Z,18.41
2023-06-22T21:15:38.822Z,18.40
2023-06-22T21:18:05.935Z,18.36
2023-06-22T21:20:33.033Z,18.30
2023-06-22T21:23:00.108Z,18.23
2023-06-22T21:25:27.458Z,18.32
2023-06-22T21:27:54.481Z,18.32
2023-06-22T21:30:22.331Z,18.38
2023-06-22T21:32:50.302Z,18.32
2023-06-22T21:35:17.377Z,18.27
2023-06-22T21:37:46.171Z,18.30
2023-06-22T21:40:13.202Z,18.19
2023-06-22T21:42:40.534Z,18.16
2023-06-22T21:45:07.442Z,18.21
2023-06-22T21:47:34.563Z,18.22
2023-06-22T21:50:01.769Z,18.23
2023-06-22T21:52:30.885Z,18.19
2023-06-22T21:54:58.066Z,18.17
2023-06-22T21:57:28.194Z,18.19
2023-06-22T21:59:55.749Z,18.37
2023-06-22T22:02:24.096Z,18.39
2023-06-22T22:04:53.459Z,18.31
2023-06-22T22:07:20.437Z,18.38
2023-06-22T22:09:47.331Z,18.44
2023-06-22T22:12:16.055Z,18.39
2023-06-22T22:14:42.679Z,18.36
2023-06-22T22:17:09.890Z,18.45
2023-06-22T22:19:37.019Z,18.42
2023-06-22T22:22:05.006Z,18.43
2023-06-22T22:24:32.367Z,18.44
2023-06-22T22:26:59.249Z,18.48
2023-06-22T22:29:28.890Z,18.43
2023-06-22T22:31:55.941Z,18.45
2023-06-22T22:34:22.601Z,18.32
2023-06-22T22:36:49.266Z,18.31
2023-06-22T22:39:38.582Z,18.30
2023-06-22T22:42:06.447Z,18.25
2023-06-22T22:44:33.075Z,18.20
2023-06-22T22:47:00.091Z,18.19
2023-06-22T22:49:26.994Z,18.39
2023-06-22T22:51:53.929Z,18.38
2023-06-22T22:54:20.595Z,18.46
2023-06-22T22:56:47.288Z,18.40
2023-06-22T22:59:23.230Z,18.31
2023-06-22T23:01:49.839Z,18.26
2023-06-22T23:04:19.497Z,18.27
2023-06-22T23:06:46.237Z,18.22
2023-06-22T23:09:12.823Z,18.16
2023-06-22T23:11:39.457Z,18.09
2023-06-22T23:14:06.101Z,18.06
2023-06-22T23:16:32.949Z,18.10
2023-06-22T23:18:59.559Z,18.12
2023-06-22T23:21:31.878Z,18.16
2023-06-22T23:23:58.648Z,18.05
2023-06-22T23:26:26.389Z,18.02
2023-06-22T23:28:53.045Z,17.93
2023-06-22T23:31:19.855Z,17.99
2023-06-22T23:33:46.568Z,18.01
2023-06-22T23:36:13.161Z,17.99
2023-06-22T23:38:40.386Z,17.95
2023-06-22T23:41:11.769Z,17.97
2023-06-22T23:43:41.474Z,18.04
2023-06-22T23:46:08.514Z,17.83
2023-06-22T23:48:35.147Z,17.87
2023-06-22T23:51:01.809Z,17.84
2023-06-22T23:53:30.913Z,17.85
2023-06-22T23:55:57.704Z,17.89
2023-06-22T23:58:25.492Z,17.77
